Time;durP1;ratioP1;P1;durP2;ratioP2;P2;SDS_P1;SDS_P2;PMS_P1;PMS_P2;Temp;Humidity;BMP_temperature;BMP_pressure;BME280_temperature;BME280_humidity;BME280_pressure;Samples;Min_cycle;Max_cycle;Signal;HPM_P1;HPM_P2
2022/12/18 00:00:46;;;;;;;89.90;44.42;;;-4.10;99.90;;;;;;5010716;28;20118;-55
2022/12/18 00:03:33;;;;;;;77.72;41.00;;;-4.10;99.90;;;;;;5010204;28;20038;-53
2022/12/18 00:06:20;;;;;;;69.07;37.63;;;-4.00;99.90;;;;;;5011303;28;20403;-51
2022/12/18 00:09:06;;;;;;;72.95;38.92;;;-4.20;99.90;;;;;;5012126;28;20037;-53
2022/12/18 00:11:52;;;;;;;78.15;38.30;;;-4.10;99.90;;;;;;5009391;28;20049;-58
2022/12/18 00:14:38;;;;;;;71.03;38.17;;;-4.00;99.90;;;;;;5010792;28;20076;-53
2022/12/18 00:17:24;;;;;;;75.32;37.95;;;-4.10;99.90;;;;;;5010686;28;20399;-55
2022/12/18 00:20:10;;;;;;;75.78;37.95;;;-4.00;99.90;;;;;;5013414;28;20402;-51
2022/12/18 00:22:56;;;;;;;73.65;39.30;;;-3.90;99.90;;;;;;5014008;28;20089;-51
2022/12/18 00:25:42;;;;;;;77.75;39.33;;;-3.90;99.90;;;;;;5014180;28;20553;-52
2022/12/18 00:28:28;;;;;;;66.78;38.05;;;-3.90;99.90;;;;;;5014761;28;20502;-53
2022/12/18 00:31:17;;;;;;;77.68;37.95;;;-3.90;99.90;;;;;;5013391;28;20034;-50
2022/12/18 00:34:03;;;;;;;70.65;35.70;;;-3.90;99.90;;;;;;5013059;28;20117;-49
2022/12/18 00:36:49;;;;;;;67.68;34.92;;;-3.80;99.90;;;;;;5013989;28;20673;-49
2022/12/18 00:39:35;;;;;;;68.10;33.90;;;-3.90;99.90;;;;;;5013975;28;20529;-49
2022/12/18 00:45:28;;;;;;;71.70;35.92;;;-4.10;99.90;;;;;;4995534;28;20030;-60
2022/12/18 00:48:14;;;;;;;71.35;34.88;;;-4.20;99.90;;;;;;5014021;28;20049;-56
2022/12/18 00:51:00;;;;;;;71.15;35.03;;;-4.20;99.90;;;;;;5014460;28;20026;-58
2022/12/18 00:53:45;;;;;;;65.93;33.78;;;-4.20;99.90;;;;;;5001573;28;20549;-57
2022/12/18 00:56:31;;;;;;;59.83;31.52;;;-4.20;99.90;;;;;;5013950;28;20049;-57
2022/12/18 00:59:18;;;;;;;64.32;33.80;;;-4.20;99.90;;;;;;5014185;28;20030;-52
2022/12/18 01:02:04;;;;;;;64.55;32.33;;;-4.20;99.90;;;;;;5012542;28;20045;-56
2022/12/18 01:04:50;;;;;;;73.30;34.65;;;-4.30;99.90;;;;;;5000481;28;20026;-56
2022/12/18 01:07:36;;;;;;;62.17;32.85;;;-4.20;99.90;;;;;;5013597;28;20105;-58
2022/12/18 01:10:23;;;;;;;59.35;32.13;;;-4.20;99.90;;;;;;5013424;28;20038;-59
2022/12/18 01:13:09;;;;;;;54.53;30.42;;;-4.30;99.90;;;;;;5021801;28;20113;-50
2022/12/18 01:15:55;;;;;;;65.25;33.10;;;-4.30;99.90;;;;;;5014656;28;20091;-54
2022/12/18 01:18:41;;;;;;;63.53;32.65;;;-4.40;99.90;;;;;;5013927;28;20517;-51
2022/12/18 01:21:27;;;;;;;63.40;32.35;;;-4.40;99.90;;;;;;5012284;28;20494;-54
2022/12/18 01:24:13;;;;;;;62.53;32.97;;;-4.30;99.90;;;;;;4998778;28;20022;-49
2022/12/18 01:26:59;;;;;;;62.22;33.30;;;-4.40;99.90;;;;;;5010716;28;20022;-57
2022/12/18 01:29:45;;;;;;;60.78;32.20;;;-4.40;99.90;;;;;;5013335;28;20498;-57
2022/12/18 01:32:32;;;;;;;68.60;33.22;;;-4.40;99.90;;;;;;4996521;28;20026;-55
2022/12/18 01:35:18;;;;;;;65.72;33.85;;;-4.30;99.90;;;;;;5012134;28;20030;-56
2022/12/18 01:38:04;;;;;;;71.18;34.42;;;-4.50;99.90;;;;;;5013302;28;20034;-53
2022/12/18 01:40:57;;;;;;;63.97;35.17;;;-4.70;99.90;;;;;;5013076;28;20026;-55
2022/12/18 01:43:51;;;;;;;66.07;33.78;;;-4.80;99.90;;;;;;5013237;28;20510;-56
2022/12/18 01:46:37;;;;;;;63.10;33.88;;;-4.80;99.90;;;;;;5012916;28;20026;-52
2022/12/18 01:49:23;;;;;;;83.38;36.38;;;-5.00;99.90;;;;;;5012895;28;20022;-57
2022/12/18 01:52:09;;;;;;;77.35;33.60;;;-5.00;99.90;;;;;;5012579;28;20033;-53
2022/12/18 01:54:56;;;;;;;70.53;36.95;;;-5.00;99.90;;;;;;4994054;28;20038;-52
2022/12/18 01:57:42;;;;;;;72.32;34.70;;;-5.10;99.90;;;;;;4993675;28;20031;-52
2022/12/18 02:00:29;;;;;;;72.57;34.50;;;-5.20;99.90;;;;;;5012406;28;20478;-49
2022/12/18 02:03:18;;;;;;;73.55;32.88;;;-5.20;99.90;;;;;;5012230;28;20072;-52
2022/12/18 02:06:36;;;;;;;75.28;32.83;;;-5.20;99.90;;;;;;5012729;28;20026;-53
2022/12/18 02:09:32;;;;;;;82.72;35.47;;;-5.20;99.90;;;;;;5011957;28;20646;-49
2022/12/18 02:12:19;;;;;;;;;;;-5.20;99.90;;;;;;4996514;28;20114;-55
2022/12/18 02:15:16;;;;;;;76.50;33.58;;;-5.30;99.90;;;;;;5012432;28;19933;-55
2022/12/18 02:18:14;;;;;;;76.00;35.42;;;-5.40;99.90;;;;;;5012301;28;20030;-48
2022/12/18 02:21:36;;;;;;;75.60;34.47;;;-5.40;99.90;;;;;;5012087;28;20531;-54
2022/12/18 02:24:28;;;;;;;78.53;34.45;;;-5.50;99.90;;;;;;5012667;28;20022;-50
2022/12/18 02:27:15;;;;;;;80.78;35.40;;;-5.50;99.90;;;;;;5013164;28;20030;-56
2022/12/18 02:30:03;;;;;;;81.75;35.28;;;-5.50;99.90;;;;;;5012531;28;20057;-53
2022/12/18 02:32:53;;;;;;;83.13;35.38;;;-5.50;99.90;;;;;;4998151;28;20058;-49
2022/12/18 02:35:41;;;;;;;80.10;35.35;;;-5.50;99.90;;;;;;5010947;28;20095;-51
2022/12/18 02:38:30;;;;;;;74.43;34.55;;;-5.40;99.90;;;;;;4997469;28;20034;-52
2022/12/18 02:41:16;;;;;;;71.72;34.35;;;-5.20;99.90;;;;;;4993700;28;20574;-52
2022/12/18 02:44:08;;;;;;;66.70;33.45;;;-5.20;99.90;;;;;;4991106;28;20068;-51
2022/12/18 02:46:58;;;;;;;67.50;32.80;;;-5.20;99.90;;;;;;4994715;28;20053;-55
2022/12/18 02:50:22;;;;;;;66.55;33.20;;;-5.20;99.90;;;;;;4997172;28;20026;-60
2022/12/18 02:53:36;;;;;;;63.38;32.00;;;-5.10;99.90;;;;;;5010585;28;20513;-52
2022/12/18 02:56:30;;;;;;;72.70;33.42;;;-5.10;99.90;;;;;;5010504;28;20034;-48
2022/12/18 02:59:25;;;;;;;69.72;31.13;;;-5.30;99.90;;;;;;5010824;28;20473;-58
2022/12/18 03:02:22;;;;;;;58.95;32.42;;;-5.20;99.90;;;;;;5008867;28;20032;-51
2022/12/18 03:05:22;;;;;;;67.15;32.63;;;-5.20;99.90;;;;;;5011674;28;20033;-51
2022/12/18 03:08:39;;;;;;;63.42;32.30;;;-5.20;99.90;;;;;;5010921;28;20038;-48
2022/12/18 03:14:37;;;;;;;64.47;32.33;;;-5.20;99.90;;;;;;4993582;28;20023;-52
2022/12/18 03:17:26;;;;;;;58.50;31.00;;;-5.30;99.90;;;;;;4993287;28;20018;-48
2022/12/18 03:20:16;;;;;;;60.30;31.92;;;-5.40;99.90;;;;;;5010067;28;20084;-54
2022/12/18 03:23:11;;;;;;;61.33;31.33;;;-5.50;99.90;;;;;;5009939;28;20026;-52
2022/12/18 03:26:01;;;;;;;59.58;32.03;;;-5.50;99.90;;;;;;5010880;28;20505;-54
2022/12/18 03:28:53;;;;;;;63.20;31.55;;;-5.40;99.90;;;;;;5010376;28;20038;-56
2022/12/18 03:31:43;;;;;;;62.83;31.10;;;-5.40;99.90;;;;;;5010086;28;20112;-48
2022/12/18 03:34:32;;;;;;;60.50;31.25;;;-5.40;99.90;;;;;;5009886;28;20040;-50
2022/12/18 03:37:18;;;;;;;60.10;30.48;;;-5.40;99.90;;;;;;4996611;28;20037;-57
2022/12/18 03:40:05;;;;;;;62.13;31.13;;;-5.50;99.90;;;;;;5011001;28;20029;-56
2022/12/18 03:42:58;;;;;;;60.70;30.20;;;-5.50;99.90;;;;;;4989283;28;20026;-49
2022/12/18 03:45:54;;;;;;;60.28;30.23;;;-5.50;99.90;;;;;;4996494;28;20038;-57
2022/12/18 03:48:48;;;;;;;67.70;32.88;;;-5.50;99.90;;;;;;4992307;28;20661;-49
2022/12/18 03:51:43;;;;;;;56.03;30.52;;;-5.50;99.90;;;;;;5008817;28;20030;-54
2022/12/18 03:54:31;;;;;;;60.15;28.70;;;-5.40;99.90;;;;;;5009204;28;20463;-52
2022/12/18 03:57:20;;;;;;;62.03;29.90;;;-5.30;99.90;;;;;;5008330;28;20022;-56
2022/12/18 04:00:13;;;;;;;60.78;31.15;;;-5.40;99.90;;;;;;5002061;28;20406;-53
2022/12/18 04:03:01;;;;;;;54.60;29.15;;;-5.40;99.90;;;;;;5013301;28;20100;-59
2022/12/18 04:05:50;;;;;;;59.63;30.90;;;-5.40;99.90;;;;;;5015249;28;20072;-60
2022/12/18 04:08:36;;;;;;;61.15;30.92;;;-5.40;99.90;;;;;;4999062;28;20034;-50
2022/12/18 04:11:22;;;;;;;61.67;32.83;;;-5.60;99.90;;;;;;5014684;28;20034;-48
2022/12/18 04:14:08;;;;;;;64.95;33.70;;;-5.80;99.90;;;;;;5014738;28;20528;-51
2022/12/18 04:16:54;;;;;;;56.75;29.83;;;-5.90;99.90;;;;;;5009872;28;20128;-53
2022/12/18 04:19:40;;;;;;;60.90;30.83;;;-5.90;99.90;;;;;;4985147;28;20022;-54
2022/12/18 04:22:27;;;;;;;62.17;32.67;;;-6.10;99.90;;;;;;5010865;28;20038;-58
2022/12/18 04:25:13;;;;;;;67.80;32.33;;;-6.20;99.90;;;;;;5006017;28;20555;-54
2022/12/18 04:27:59;;;;;;;63.00;30.30;;;-6.10;99.90;;;;;;5008868;28;20053;-58
2022/12/18 04:30:49;;;;;;;64.75;32.22;;;-6.10;99.90;;;;;;5004414;28;20026;-54
2022/12/18 04:33:35;;;;;;;58.85;30.33;;;-6.00;99.90;;;;;;5005277;28;20037;-55
2022/12/18 04:36:21;;;;;;;62.83;32.95;;;-5.90;99.90;;;;;;5007076;28;20040;-56
2022/12/18 04:39:07;;;;;;;63.70;30.58;;;-5.80;99.90;;;;;;5009055;28;20040;-57
2022/12/18 04:41:52;;;;;;;65.97;33.28;;;-5.90;99.90;;;;;;5016014;28;20092;-52
2022/12/18 04:44:38;;;;;;;71.25;34.75;;;-6.00;99.90;;;;;;5013148;28;20022;-55
2022/12/18 04:47:24;;;;;;;70.35;33.13;;;-6.20;99.90;;;;;;5013731;28;20018;-53
2022/12/18 04:50:10;;;;;;;68.32;32.90;;;-6.30;99.90;;;;;;5013202;28;20057;-58
2022/12/18 04:52:57;;;;;;;73.40;33.33;;;-6.40;99.90;;;;;;5013043;28;20613;-52
2022/12/18 04:55:43;;;;;;;67.20;32.88;;;-6.50;99.90;;;;;;5013230;28;20045;-53
2022/12/18 04:58:29;;;;;;;68.05;33.00;;;-6.50;99.90;;;;;;5011939;28;20034;-56
2022/12/18 05:01:16;;;;;;;72.63;33.55;;;-6.90;99.90;;;;;;5005866;28;20106;-55
2022/12/18 05:04:03;;;;;;;67.53;33.10;;;-7.00;99.90;;;;;;4993661;28;20022;-55
2022/12/18 05:06:48;;;;;;;67.43;33.33;;;-6.90;99.90;;;;;;4995309;28;20035;-58
2022/12/18 05:09:34;;;;;;;66.22;33.10;;;-6.90;99.90;;;;;;5013725;28;20026;-55
2022/12/18 05:12:23;;;;;;;57.10;31.63;;;-7.00;99.90;;;;;;5013066;28;20033;-53
2022/12/18 05:15:09;;;;;;;64.30;31.13;;;-6.90;99.90;;;;;;5013020;28;20080;-54
2022/12/18 05:17:56;;;;;;;58.88;30.60;;;-6.80;99.90;;;;;;5013724;28;20037;-55
2022/12/18 05:20:42;;;;;;;62.95;30.65;;;-6.80;99.90;;;;;;4994673;28;20411;-54
2022/12/18 05:23:29;;;;;;;60.55;31.20;;;-7.00;99.90;;;;;;4993754;28;20380;-58
2022/12/18 05:26:17;;;;;;;63.95;32.70;;;-7.00;99.90;;;;;;5006364;28;20626;-55
2022/12/18 05:29:03;;;;;;;66.10;31.80;;;-7.00;99.90;;;;;;5013925;28;20080;-58
2022/12/18 05:31:49;;;;;;;61.75;32.47;;;-6.90;99.90;;;;;;5011677;28;20061;-57
2022/12/18 05:34:35;;;;;;;62.03;32.20;;;-7.00;99.90;;;;;;5012435;28;20152;-56
2022/12/18 05:37:21;;;;;;;63.17;31.30;;;-7.10;99.90;;;;;;5012603;28;20527;-51
2022/12/18 05:40:07;;;;;;;63.22;28.55;;;-7.00;99.90;;;;;;5012571;28;20072;-55
2022/12/18 05:42:53;;;;;;;64.13;30.20;;;-7.10;99.90;;;;;;5012799;28;20033;-54
2022/12/18 05:45:40;;;;;;;62.38;31.65;;;-7.20;99.90;;;;;;5012069;28;20065;-52
2022/12/18 05:48:26;;;;;;;68.63;31.08;;;-7.20;99.90;;;;;;5012294;28;20494;-54
2022/12/18 05:51:15;;;;;;;64.13;32.15;;;-7.20;99.90;;;;;;5011758;28;20077;-51
2022/12/18 05:54:01;;;;;;;59.45;29.30;;;-7.30;99.90;;;;;;4996501;28;20057;-53
2022/12/18 05:56:47;;;;;;;66.40;31.15;;;-7.20;99.90;;;;;;4998207;28;20096;-56
2022/12/18 05:59:33;;;;;;;67.50;31.70;;;-7.20;99.90;;;;;;5014970;28;20113;-55
2022/12/18 06:02:20;;;;;;;65.60;30.55;;;-7.30;99.90;;;;;;5010877;28;20156;-57
2022/12/18 06:05:07;;;;;;;57.35;30.90;;;-7.30;99.90;;;;;;5011826;28;20030;-58
2022/12/18 06:07:53;;;;;;;64.30;29.52;;;-7.40;99.90;;;;;;5012459;28;20490;-54
2022/12/18 06:10:40;;;;;;;65.45;32.17;;;-7.50;99.90;;;;;;5012624;28;20573;-55
2022/12/18 06:13:26;;;;;;;63.95;30.52;;;-7.50;99.90;;;;;;5012118;28;20029;-55
2022/12/18 06:16:12;;;;;;;55.42;30.30;;;-7.40;99.90;;;;;;5011157;28;20022;-56
2022/12/18 06:19:00;;;;;;;54.58;30.05;;;-7.40;99.90;;;;;;5011535;28;20587;-53
2022/12/18 06:21:46;;;;;;;60.55;32.17;;;-7.30;99.90;;;;;;5011490;28;20224;-57
2022/12/18 06:24:32;;;;;;;62.63;31.38;;;-7.40;99.90;;;;;;5012113;28;20053;-54
2022/12/18 06:27:18;;;;;;;58.90;29.38;;;-7.40;99.90;;;;;;4997567;28;20061;-57
2022/12/18 06:30:05;;;;;;;55.20;28.77;;;-7.40;99.90;;;;;;5008044;28;20045;-51
2022/12/18 06:32:51;;;;;;;58.58;30.02;;;-7.30;99.90;;;;;;5010503;28;20117;-52
2022/12/18 06:35:37;;;;;;;60.03;28.13;;;-7.30;99.90;;;;;;5012030;28;20486;-55
2022/12/18 06:38:23;;;;;;;61.95;29.42;;;-7.30;99.90;;;;;;4992406;28;20107;-55
2022/12/18 06:41:14;;;;;;;52.22;27.23;;;-7.20;99.90;;;;;;4980875;28;20514;-54
2022/12/18 06:44:00;;;;;;;58.63;27.58;;;-7.30;99.90;;;;;;5011725;28;20528;-57
2022/12/18 06:46:46;;;;;;;56.22;28.73;;;-7.20;99.90;;;;;;5010618;28;20037;-54
2022/12/18 06:49:31;;;;;;;57.67;29.48;;;-7.20;99.90;;;;;;5011137;28;20026;-57
2022/12/18 06:52:17;;;;;;;53.47;29.48;;;-7.20;99.90;;;;;;5011295;28;20069;-56
2022/12/18 06:55:05;;;;;;;55.35;29.70;;;-7.20;99.90;;;;;;5011253;28;20057;-58
2022/12/18 06:57:51;;;;;;;50.75;26.90;;;-7.20;99.90;;;;;;5011906;28;20411;-59
2022/12/18 07:00:37;;;;;;;50.45;26.98;;;-7.20;99.90;;;;;;5012842;28;20045;-56
2022/12/18 07:03:22;;;;;;;54.05;28.33;;;-7.20;99.90;;;;;;5011043;28;20026;-50
2022/12/18 07:06:16;;;;;;;58.00;30.45;;;-7.30;99.90;;;;;;5008816;28;20053;-50
2022/12/18 07:09:02;;;;;;;49.55;28.38;;;-7.30;99.90;;;;;;5009774;28;20041;-50
2022/12/18 07:11:48;;;;;;;49.97;25.85;;;-7.30;99.90;;;;;;5011118;28;20449;-53
2022/12/18 07:14:34;;;;;;;51.20;26.13;;;-7.30;99.90;;;;;;5010832;28;20030;-50
2022/12/18 07:17:20;;;;;;;52.70;27.83;;;-7.30;99.90;;;;;;5010608;28;20029;-54
2022/12/18 07:20:06;;;;;;;52.25;28.58;;;-7.60;99.90;;;;;;5010475;28;20038;-56
2022/12/18 07:22:52;;;;;;;52.13;28.33;;;-7.80;99.90;;;;;;5011212;28;20030;-54
2022/12/18 07:25:39;;;;;;;55.92;30.55;;;-7.90;99.90;;;;;;5010302;28;20376;-54
2022/12/18 07:28:25;;;;;;;51.35;27.20;;;-8.10;99.90;;;;;;5010265;28;20537;-56
2022/12/18 07:31:19;;;;;;;57.30;29.10;;;-8.20;99.90;;;;;;5009662;28;20045;-52
2022/12/18 07:34:09;;;;;;;57.08;32.70;;;-8.20;99.90;;;;;;5010614;28;20529;-55
2022/12/18 07:36:55;;;;;;;48.42;26.70;;;-8.20;99.90;;;;;;5008196;28;20056;-56
2022/12/18 07:39:41;;;;;;;46.65;25.35;;;-8.20;99.90;;;;;;5010542;28;20030;-58
2022/12/18 07:42:30;;;;;;;47.15;27.10;;;-8.30;99.90;;;;;;5010372;28;20034;-53
2022/12/18 07:45:16;;;;;;;47.90;26.38;;;-8.30;99.90;;;;;;5010565;28;20510;-53
2022/12/18 07:48:02;;;;;;;46.75;25.83;;;-8.20;99.90;;;;;;4995954;28;20409;-55
2022/12/18 07:50:48;;;;;;;45.88;24.25;;;-8.10;99.90;;;;;;5008102;28;20117;-54
2022/12/18 07:53:35;;;;;;;44.85;24.60;;;-8.00;99.90;;;;;;5010523;28;20033;-54
2022/12/18 07:56:21;;;;;;;39.70;22.33;;;-7.90;99.90;;;;;;5011176;28;20030;-58
2022/12/18 07:59:07;;;;;;;49.50;25.77;;;-7.80;99.90;;;;;;5008877;28;20042;-56
2022/12/18 08:01:53;;;;;;;47.38;25.23;;;-7.80;99.90;;;;;;5009770;28;20101;-58
2022/12/18 08:04:39;;;;;;;38.10;23.00;;;-7.60;99.90;;;;;;5010520;28;20134;-55
2022/12/18 08:07:25;;;;;;;40.78;22.17;;;-7.50;99.90;;;;;;5011366;28;20026;-56
2022/12/18 08:10:11;;;;;;;41.60;23.85;;;-7.50;99.90;;;;;;5010852;28;20040;-51
2022/12/18 08:12:57;;;;;;;40.13;23.02;;;-7.40;99.90;;;;;;5010169;28;20040;-58
2022/12/18 08:15:43;;;;;;;42.28;24.02;;;-7.40;99.90;;;;;;5010238;28;20045;-54
2022/12/18 08:18:29;;;;;;;44.42;23.85;;;-7.80;99.90;;;;;;5009501;28;20069;-52
2022/12/18 08:21:24;;;;;;;44.95;23.42;;;-7.70;99.90;;;;;;5010034;28;20018;-54
2022/12/18 08:24:10;;;;;;;49.97;25.38;;;-7.90;99.90;;;;;;5009830;28;20037;-56
2022/12/18 08:26:57;;;;;;;48.35;23.80;;;-7.90;99.90;;;;;;5009472;28;20125;-56
2022/12/18 08:29:42;;;;;;;42.65;24.13;;;-7.80;99.90;;;;;;5008749;28;20038;-57
2022/12/18 08:32:28;;;;;;;43.35;23.42;;;-7.60;99.90;;;;;;5009731;28;20117;-55
2022/12/18 08:35:14;;;;;;;44.55;23.90;;;-7.50;99.90;;;;;;5010506;28;20080;-52
2022/12/18 08:38:00;;;;;;;42.70;26.38;;;-7.30;99.90;;;;;;4996067;28;20057;-56
2022/12/18 08:40:46;;;;;;;39.38;22.92;;;-7.40;99.90;;;;;;5011645;28;20120;-57
2022/12/18 08:46:42;;;;;;;43.22;24.38;;;-7.30;99.90;;;;;;5012707;28;20037;-57
2022/12/18 08:49:28;;;;;;;42.50;24.63;;;-7.20;99.90;;;;;;5013367;28;20387;-55
2022/12/18 08:52:17;;;;;;;44.83;24.77;;;-7.10;99.90;;;;;;5012452;28;20042;-54
2022/12/18 08:55:03;;;;;;;43.13;24.08;;;-6.90;99.90;;;;;;4999308;28;20041;-59
2022/12/18 08:57:49;;;;;;;46.08;27.30;;;-6.90;99.90;;;;;;5011248;28;20022;-56
2022/12/18 09:00:35;;;;;;;44.22;24.58;;;-6.80;99.90;;;;;;5008064;28;20063;-58
2022/12/18 09:03:22;;;;;;;48.40;24.55;;;-6.70;99.90;;;;;;5011699;28;20033;-55
2022/12/18 09:06:08;;;;;;;49.58;25.20;;;-6.60;99.90;;;;;;4994229;28;20037;-56
2022/12/18 09:08:54;;;;;;;51.13;26.38;;;-6.60;99.90;;;;;;4996382;28;20405;-54
2022/12/18 09:11:40;;;;;;;41.88;24.48;;;-6.60;99.90;;;;;;5012247;28;20450;-58
2022/12/18 09:14:26;;;;;;;99.22;46.58;;;-6.60;99.90;;;;;;4998870;28;20092;-54
2022/12/18 09:17:15;;;;;;;107.22;48.72;;;-6.50;99.90;;;;;;5013672;28;20095;-55
2022/12/18 09:20:01;;;;;;;72.95;36.10;;;-6.40;99.90;;;;;;4990571;28;20038;-54
2022/12/18 09:22:46;;;;;;;50.65;27.08;;;-6.20;99.90;;;;;;5010971;28;20486;-57
2022/12/18 09:25:35;;;;;;;49.65;26.63;;;-6.20;99.90;;;;;;5013252;28;20037;-56
2022/12/18 09:28:21;;;;;;;42.90;23.83;;;-6.10;99.90;;;;;;5012670;28;20022;-55
2022/12/18 09:31:08;;;;;;;45.67;24.13;;;-6.00;99.90;;;;;;5013238;28;20026;-54
2022/12/18 09:33:56;;;;;;;41.33;24.05;;;-5.90;99.90;;;;;;5011789;28;20026;-53
2022/12/18 09:36:42;;;;;;;43.38;23.48;;;-5.80;99.90;;;;;;5012986;28;20449;-55
2022/12/18 09:39:28;;;;;;;42.97;24.08;;;-5.80;99.90;;;;;;5013220;28;20117;-54
2022/12/18 09:42:21;;;;;;;41.83;25.45;;;-5.70;99.90;;;;;;5010765;28;20026;-54
2022/12/18 09:45:14;;;;;;;50.38;25.38;;;-5.60;99.90;;;;;;5008906;28;20041;-55
2022/12/18 09:48:06;;;;;;;39.70;22.67;;;-5.50;99.90;;;;;;5003807;28;20026;-52
2022/12/18 09:50:58;;;;;;;38.80;21.08;;;-5.40;99.90;;;;;;5009358;28;20072;-56
2022/12/18 09:53:50;;;;;;;42.35;21.77;;;-5.40;99.90;;;;;;5008817;28;20041;-57
2022/12/18 09:56:42;;;;;;;41.25;22.60;;;-5.30;99.90;;;;;;5011773;28;20683;-56
2022/12/18 09:59:39;;;;;;;38.47;21.30;;;-5.10;99.90;;;;;;5011011;28;20022;-53
2022/12/18 10:02:29;;;;;;;34.22;19.08;;;-5.00;99.90;;;;;;5007376;28;20073;-58
2022/12/18 10:05:53;;;;;;;34.42;19.85;;;-4.90;99.90;;;;;;5007958;28;20061;-53
2022/12/18 10:09:03;;;;;;;34.95;19.48;;;-4.80;99.90;;;;;;4995145;28;20088;-54
2022/12/18 10:12:13;;;;;;;37.65;17.95;;;-4.60;99.90;;;;;;5004596;28;20029;-54
2022/12/18 10:15:11;;;;;;;32.58;16.90;;;-4.50;99.90;;;;;;5006654;28;20565;-54
2022/12/18 10:18:22;;;;;;;26.85;16.75;;;-4.40;99.90;;;;;;5011386;28;20379;-54
2022/12/18 10:21:15;;;;;;;28.98;17.35;;;-4.30;99.90;;;;;;5009927;28;20092;-56
2022/12/18 10:24:08;;;;;;;27.17;15.50;;;-4.20;99.90;;;;;;5008943;28;20082;-57
2022/12/18 10:27:08;;;;;;;24.00;14.13;;;-4.10;99.90;;;;;;5007740;28;20029;-56
2022/12/18 10:29:54;;;;;;;25.52;14.15;;;-4.00;99.90;;;;;;5008468;28;20549;-54
2022/12/18 10:32:41;;;;;;;43.10;26.08;;;-4.10;99.90;;;;;;5011194;28;20030;-55
2022/12/18 10:35:27;;;;;;;30.25;16.75;;;-4.00;99.90;;;;;;5009583;28;20498;-58
2022/12/18 10:38:16;;;;;;;23.63;13.90;;;-3.90;99.90;;;;;;5009854;28;20046;-59
2022/12/18 10:41:05;;;;;;;23.27;13.98;;;-3.80;99.90;;;;;;5008341;28;20037;-58
2022/12/18 10:44:17;;;;;;;26.83;16.48;;;-3.80;99.90;;;;;;5017175;28;20449;-58
2022/12/18 10:47:10;;;;;;;29.92;16.70;;;-3.70;99.90;;;;;;5008312;28;20734;-55
2022/12/18 10:49:57;;;;;;;26.02;15.43;;;-3.50;99.90;;;;;;5006645;28;20034;-58
2022/12/18 10:52:43;;;;;;;27.98;16.17;;;-3.40;99.90;;;;;;5010024;28;20624;-58
2022/12/18 10:55:35;;;;;;;24.48;15.90;;;-3.30;99.90;;;;;;5009072;28;20034;-56
2022/12/18 10:58:33;;;;;;;23.40;14.05;;;-3.20;99.90;;;;;;5009568;28;20025;-58
2022/12/18 11:01:21;;;;;;;26.30;13.90;;;-3.00;99.90;;;;;;5008737;28;20112;-59
2022/12/18 11:04:08;;;;;;;26.98;17.13;;;-2.90;99.90;;;;;;5003325;28;20022;-55
2022/12/18 11:07:01;;;;;;;28.30;16.08;;;-2.70;99.90;;;;;;5004491;28;20037;-56
2022/12/18 11:10:00;;;;;;;21.55;14.45;;;-2.70;99.90;;;;;;5010089;28;20070;-50
2022/12/18 11:12:47;;;;;;;24.30;13.60;;;-2.70;99.90;;;;;;5007342;28;20034;-50
2022/12/18 11:15:33;;;;;;;23.55;14.27;;;-2.80;99.90;;;;;;5007525;28;20390;-52
2022/12/18 11:18:30;;;;;;;20.38;12.98;;;-2.70;99.90;;;;;;5008732;28;20099;-53
2022/12/18 11:21:16;;;;;;;21.55;13.27;;;-2.70;99.90;;;;;;5009341;28;20045;-53
2022/12/18 11:24:02;;;;;;;25.02;14.57;;;-2.70;99.90;;;;;;5010552;28;20072;-54
2022/12/18 11:26:49;;;;;;;23.88;13.48;;;-2.60;99.90;;;;;;5009048;28;20050;-57
2022/12/18 11:29:39;;;;;;;20.30;13.23;;;-2.60;99.90;;;;;;4992376;28;20040;-55
2022/12/18 11:32:35;;;;;;;20.13;13.25;;;-2.40;99.90;;;;;;5011012;28;20033;-57
2022/12/18 11:35:30;;;;;;;22.70;13.32;;;-2.30;99.90;;;;;;5010483;28;20709;-56
2022/12/18 11:38:37;;;;;;;22.38;13.00;;;-2.30;99.90;;;;;;5007280;28;20045;-57
2022/12/18 11:44:59;;;;;;;25.27;14.95;;;-2.00;99.90;;;;;;5010304;28;20101;-58
2022/12/18 11:48:02;;;;;;;30.40;18.08;;;-1.90;99.90;;;;;;4983006;28;20055;-53
2022/12/18 11:50:55;;;;;;;26.20;15.80;;;-1.90;99.90;;;;;;5010722;28;20025;-53
2022/12/18 11:53:41;;;;;;;25.13;13.50;;;-1.80;99.90;;;;;;5008027;28;20199;-54
2022/12/18 11:56:35;;;;;;;24.00;14.57;;;-1.90;99.90;;;;;;5009736;28;20509;-55
2022/12/18 11:59:27;;;;;;;25.40;13.77;;;-1.80;99.90;;;;;;4995284;28;20026;-59
2022/12/18 12:02:35;;;;;;;21.27;13.98;;;-1.80;99.90;;;;;;5008320;28;20108;-59
2022/12/18 12:05:28;;;;;;;20.30;14.05;;;-1.90;99.90;;;;;;5009355;28;20022;-58
2022/12/18 12:08:17;;;;;;;24.20;14.82;;;-1.90;99.90;;;;;;5011199;28;20033;-57
2022/12/18 12:11:12;;;;;;;20.98;13.00;;;-1.90;99.90;;;;;;5009159;28;20037;-58
2022/12/18 12:14:32;;;;;;;21.77;13.77;;;-1.80;99.90;;;;;;5007704;28;20037;-58
2022/12/18 12:17:33;;;;;;;22.13;13.60;;;-1.70;99.90;;;;;;5013870;28;20041;-53
2022/12/18 12:20:43;;;;;;;20.30;12.65;;;-1.60;99.90;;;;;;5010037;28;20030;-55
2022/12/18 12:23:53;;;;;;;22.90;14.23;;;-1.80;99.90;;;;;;5013797;28;20532;-59
2022/12/18 12:27:13;;;;;;;21.52;13.57;;;-1.80;99.90;;;;;;4997981;28;20022;-64
2022/12/18 12:30:16;;;;;;;17.33;12.57;;;-1.70;99.90;;;;;;5002403;28;20033;-65
2022/12/18 12:33:18;;;;;;;19.17;13.75;;;-1.70;99.90;;;;;;5011756;28;20030;-64
2022/12/18 12:36:42;;;;;;;19.75;13.02;;;-1.60;99.90;;;;;;5012437;28;20033;-63
2022/12/18 12:39:32;;;;;;;19.73;13.13;;;-1.60;99.90;;;;;;5013878;28;20023;-67
2022/12/18 12:46:03;;;;;;;17.35;12.77;;;-1.60;99.90;;;;;;4999018;28;20037;-67
2022/12/18 12:48:56;;;;;;;18.97;13.07;;;-1.40;99.90;;;;;;5014031;28;20058;-69
2022/12/18 12:51:46;;;;;;;18.83;11.95;;;-1.40;99.90;;;;;;5013240;28;20049;-65
2022/12/18 12:54:33;;;;;;;18.33;11.30;;;-1.30;99.90;;;;;;5013660;28;20025;-64
2022/12/18 12:57:22;;;;;;;19.17;11.45;;;-1.30;99.90;;;;;;5010467;28;20029;-64
2022/12/18 13:00:14;;;;;;;17.08;11.93;;;-1.10;99.90;;;;;;5011104;28;20092;-60
2022/12/18 13:03:08;;;;;;;18.30;12.13;;;-0.90;99.90;;;;;;5012209;28;20029;-61
2022/12/18 13:06:03;;;;;;;16.88;12.98;;;-0.90;99.90;;;;;;5012512;28;20036;-63
2022/12/18 13:08:53;;;;;;;18.55;12.50;;;-0.80;99.90;;;;;;5011023;28;20474;-63
2022/12/18 13:16:03;;;;;;;18.75;13.05;;;-1.00;99.90;;;;;;5012524;28;20495;-64
2022/12/18 13:18:56;;;;;;;16.70;12.13;;;-1.10;99.90;;;;;;4997549;28;20041;-63
2022/12/18 13:21:51;;;;;;;15.38;11.60;;;-1.20;99.90;;;;;;5012696;28;20080;-64
2022/12/18 13:24:37;;;;;;;16.15;12.02;;;-1.20;99.90;;;;;;5011485;28;20112;-66
2022/12/18 13:27:53;;;;;;;21.30;12.98;;;-1.40;99.90;;;;;;5011829;28;20034;-65
2022/12/18 13:30:45;;;;;;;17.98;12.23;;;-1.50;99.90;;;;;;5013044;28;20430;-66
2022/12/18 13:33:45;;;;;;;19.95;12.73;;;-1.60;99.90;;;;;;4997017;28;20044;-70
2022/12/18 13:36:37;;;;;;;18.13;12.60;;;-1.70;99.90;;;;;;5012696;28;20084;-57
2022/12/18 13:39:33;;;;;;;20.80;12.57;;;-1.80;99.90;;;;;;5010687;28;20572;-54
2022/12/18 13:45:45;;;;;;;20.88;14.27;;;-2.10;99.90;;;;;;5011800;28;20568;-58
2022/12/18 13:48:35;;;;;;;21.67;15.02;;;-2.10;99.90;;;;;;5013332;28;20113;-55
2022/12/18 13:51:22;;;;;;;27.58;15.10;;;-2.20;99.90;;;;;;5011034;28;20026;-56
2022/12/18 13:54:27;;;;;;;22.52;15.10;;;-2.30;99.90;;;;;;5011279;28;20025;-57
2022/12/18 13:57:34;;;;;;;24.20;15.85;;;-2.30;99.90;;;;;;5012046;28;20021;-56
2022/12/18 14:00:29;;;;;;;23.90;16.40;;;-2.40;99.90;;;;;;5012963;28;20033;-59
2022/12/18 14:03:22;;;;;;;25.60;16.70;;;-2.40;99.90;;;;;;5012262;28;20026;-57
2022/12/18 14:06:08;;;;;;;24.67;16.85;;;-2.50;99.90;;;;;;4997091;28;20107;-57
2022/12/18 14:08:55;;;;;;;24.25;17.33;;;-2.50;99.90;;;;;;4996523;28;20038;-57
2022/12/18 14:11:47;;;;;;;28.50;18.30;;;-2.60;99.90;;;;;;5010964;28;20117;-60
2022/12/18 14:14:33;;;;;;;24.10;17.42;;;-2.70;99.90;;;;;;4996040;28;20084;-55
2022/12/18 14:17:19;;;;;;;31.15;18.25;;;-2.80;99.90;;;;;;4996988;28;20049;-57
2022/12/18 14:20:14;;;;;;;29.42;19.70;;;-2.90;99.90;;;;;;5011148;28;20026;-57
2022/12/18 14:23:00;;;;;;;30.75;19.95;;;-2.90;99.90;;;;;;5010999;28;20494;-58
2022/12/18 14:25:47;;;;;;;27.50;17.92;;;-2.90;99.90;;;;;;5011561;28;20022;-59
2022/12/18 14:28:32;;;;;;;28.42;19.08;;;-3.00;99.90;;;;;;5011473;28;20036;-60
2022/12/18 14:31:24;;;;;;;29.65;18.17;;;-3.10;99.90;;;;;;5012280;28;20018;-60
2022/12/18 14:34:16;;;;;;;28.23;19.00;;;-3.30;99.90;;;;;;5015845;28;20431;-55
2022/12/18 14:37:03;;;;;;;34.28;19.58;;;-3.30;99.90;;;;;;5013299;28;20021;-54
2022/12/18 14:40:13;;;;;;;33.28;20.02;;;-3.30;99.90;;;;;;5002501;28;20030;-60
2022/12/18 14:42:59;;;;;;;29.95;19.17;;;-3.40;99.90;;;;;;5011291;28;20056;-57
2022/12/18 14:45:46;;;;;;;32.10;19.02;;;-3.40;99.90;;;;;;5007710;28;20113;-56
2022/12/18 14:48:42;;;;;;;29.50;18.50;;;-3.50;99.90;;;;;;5011652;28;20065;-55